Time;durP1;ratioP1;P1;durP2;ratioP2;P2;SDS_P1;SDS_P2;PMS_P1;PMS_P2;Temp;Humidity;BMP_temperature;BMP_pressure;BME280_temperature;BME280_humidity;BME280_pressure;Samples;Min_cycle;Max_cycle;Signal;HPM_P1;HPM_P2
2022/07/07 00:00:32;;;;;;;10.63;4.78;;;;;;;;;;4756156;30;20078;-72
2022/07/07 00:03:03;;;;;;;12.88;3.15;;;;;;;;;;4785922;29;20059;-71
2022/07/07 00:05:38;;;;;;;9.63;2.30;;;;;;;;;;4741737;30;20062;-71
2022/07/07 00:08:09;;;;;;;8.07;2.38;;;;;;;;;;4785672;29;20067;-71
2022/07/07 00:10:39;;;;;;;8.02;2.63;;;;;;;;;;4770478;29;20183;-71
2022/07/07 00:13:10;;;;;;;9.95;3.10;;;;;;;;;;4786196;29;20074;-72
2022/07/07 00:15:45;;;;;;;10.98;3.10;;;;;;;;;;4785756;29;20497;-72
2022/07/07 00:18:16;;;;;;;8.18;3.15;;;;;;;;;;4786017;29;20070;-73
2022/07/07 00:20:46;;;;;;;10.25;4.22;;;;;;;;;;4755248;29;20062;-71
2022/07/07 00:23:16;;;;;;;10.30;3.97;;;;;;;;;;4738067;30;20048;-71
2022/07/07 00:25:46;;;;;;;8.02;3.58;;;;;;;;;;4788474;29;21118;-71
2022/07/07 00:28:17;;;;;;;6.40;3.15;;;;;;;;;;4777880;30;20059;-71
2022/07/07 00:30:48;;;;;;;7.97;2.80;;;;;;;;;;4785645;30;20063;-71
2022/07/07 00:33:18;;;;;;;8.57;3.33;;;;;;;;;;4755783;30;20067;-72
2022/07/07 00:35:51;;;;;;;7.57;2.85;;;;;;;;;;4770817;30;20063;-72
2022/07/07 00:38:21;;;;;;;7.90;2.65;;;;;;;;;;4752755;30;20056;-72
2022/07/07 00:40:52;;;;;;;8.30;3.28;;;;;;;;;;4767572;30;20689;-71
2022/07/07 00:43:44;;;;;;;7.15;2.35;;;;;;;;;;4773059;29;20476;-73
2022/07/07 00:46:16;;;;;;;5.95;2.90;;;;;;;;;;4785493;30;20055;-71
2022/07/07 00:48:47;;;;;;;10.18;2.67;;;;;;;;;;4785523;30;20066;-70
2022/07/07 00:51:18;;;;;;;8.45;3.42;;;;;;;;;;4785224;30;20062;-72
2022/07/07 00:53:48;;;;;;;8.70;3.28;;;;;;;;;;4770198;30;20070;-72
2022/07/07 00:56:18;;;;;;;8.05;3.05;;;;;;;;;;4755395;30;20445;-72
2022/07/07 00:58:49;;;;;;;8.65;2.60;;;;;;;;;;4784992;29;20063;-72
2022/07/07 01:01:19;;;;;;;5.07;2.28;;;;;;;;;;4770298;30;20520;-72
2022/07/07 01:03:49;;;;;;;8.25;2.80;;;;;;;;;;4785195;30;20055;-71
2022/07/07 01:06:20;;;;;;;8.40;3.10;;;;;;;;;;4809607;29;20191;-71
2022/07/07 01:08:53;;;;;;;7.60;2.92;;;;;;;;;;4821004;29;20065;-71
2022/07/07 01:11:23;;;;;;;8.55;2.72;;;;;;;;;;4791696;29;20536;-71
2022/07/07 01:13:56;;;;;;;7.53;3.00;;;;;;;;;;4821138;29;20058;-71
2022/07/07 01:16:33;;;;;;;15.85;2.92;;;;;;;;;;4817078;29;20057;-72
2022/07/07 01:19:03;;;;;;;10.05;2.95;;;;;;;;;;4876092;29;20068;-71
2022/07/07 01:21:43;;;;;;;10.57;3.15;;;;;;;;;;4875884;29;20049;-71
2022/07/07 01:24:13;;;;;;;7.35;2.67;;;;;;;;;;4876106;29;20060;-71
2022/07/07 01:26:44;;;;;;;15.00;3.65;;;;;;;;;;4875342;29;20079;-71
2022/07/07 01:29:14;;;;;;;9.82;3.10;;;;;;;;;;4808664;29;20198;-72
2022/07/07 01:31:45;;;;;;;7.85;2.80;;;;;;;;;;4839119;29;20447;-72
2022/07/07 01:34:16;;;;;;;9.57;3.15;;;;;;;;;;4838905;29;20062;-71
2022/07/07 01:36:46;;;;;;;9.48;3.03;;;;;;;;;;4778689;29;20533;-71
2022/07/07 01:39:16;;;;;;;7.22;2.90;;;;;;;;;;4839192;29;20174;-72
2022/07/07 01:41:46;;;;;;;8.13;2.70;;;;;;;;;;4838598;29;20070;-71
2022/07/07 01:44:17;;;;;;;6.80;2.88;;;;;;;;;;4838944;29;20045;-70
2022/07/07 01:46:47;;;;;;;7.88;2.70;;;;;;;;;;4824099;29;20073;-71
2022/07/07 01:49:17;;;;;;;8.82;2.78;;;;;;;;;;4838909;29;20057;-71
2022/07/07 01:51:48;;;;;;;8.70;2.63;;;;;;;;;;4838738;29;20054;-71
2022/07/07 01:54:18;;;;;;;9.02;3.00;;;;;;;;;;4792792;29;20053;-71
2022/07/07 01:56:49;;;;;;;5.18;2.40;;;;;;;;;;4820300;29;20530;-71
2022/07/07 01:59:19;;;;;;;11.80;3.08;;;;;;;;;;4805640;29;20062;-71
2022/07/07 02:01:50;;;;;;;7.82;2.88;;;;;;;;;;4775504;29;20057;-71
2022/07/07 02:04:20;;;;;;;6.22;2.90;;;;;;;;;;4790178;29;20062;-71
2022/07/07 02:06:51;;;;;;;6.72;2.60;;;;;;;;;;4841348;29;20073;-70
2022/07/07 02:09:21;;;;;;;6.88;2.55;;;;;;;;;;4875501;29;20170;-71
2022/07/07 02:11:52;;;;;;;7.63;2.92;;;;;;;;;;4875053;29;20088;-71
2022/07/07 02:14:22;;;;;;;9.30;2.67;;;;;;;;;;4875366;29;20527;-71
2022/07/07 02:16:54;;;;;;;5.80;2.53;;;;;;;;;;4875394;29;20061;-71
2022/07/07 02:19:25;;;;;;;12.73;3.00;;;;;;;;;;4875228;29;20060;-71
2022/07/07 02:21:56;;;;;;;7.22;2.70;;;;;;;;;;4875025;29;20202;-71
2022/07/07 02:24:27;;;;;;;7.82;2.67;;;;;;;;;;4844429;29;20060;-71
2022/07/07 02:26:57;;;;;;;9.05;2.55;;;;;;;;;;4875184;29;20084;-71
2022/07/07 02:29:27;;;;;;;7.88;2.72;;;;;;;;;;4875355;29;20089;-72
2022/07/07 02:31:57;;;;;;;8.15;2.17;;;;;;;;;;4844238;29;20444;-72
2022/07/07 02:34:28;;;;;;;6.50;2.72;;;;;;;;;;4860378;29;20461;-71
2022/07/07 02:36:59;;;;;;;10.32;2.22;;;;;;;;;;4875047;29;20143;-71
2022/07/07 02:39:29;;;;;;;8.77;2.50;;;;;;;;;;4875091;29;20522;-71
2022/07/07 02:42:00;;;;;;;6.22;2.40;;;;;;;;;;4875013;29;20056;-72
2022/07/07 02:44:29;;;;;;;10.13;2.45;;;;;;;;;;4867172;29;20064;-72
2022/07/07 02:47:00;;;;;;;8.48;2.75;;;;;;;;;;4858908;29;20057;-72
2022/07/07 02:49:31;;;;;;;4.93;2.25;;;;;;;;;;4859036;29;20053;-72
2022/07/07 02:52:03;;;;;;;6.95;2.15;;;;;;;;;;4825930;29;20418;-71
2022/07/07 02:54:33;;;;;;;4.93;2.20;;;;;;;;;;4874743;29;20060;-71
2022/07/07 02:57:04;;;;;;;6.97;2.08;;;;;;;;;;4874822;29;20069;-72
2022/07/07 02:59:36;;;;;;;8.77;2.45;;;;;;;;;;4874938;29;20068;-72
2022/07/07 03:02:06;;;;;;;11.95;2.50;;;;;;;;;;4874847;29;20410;-71
2022/07/07 03:04:36;;;;;;;6.47;2.28;;;;;;;;;;4855996;29;20412;-70
2022/07/07 03:07:07;;;;;;;9.05;2.83;;;;;;;;;;4856017;29;20060;-70
2022/07/07 03:09:37;;;;;;;5.47;2.28;;;;;;;;;;4856292;29;20062;-70
2022/07/07 03:12:07;;;;;;;5.40;2.63;;;;;;;;;;4856117;29;20589;-71
2022/07/07 03:14:38;;;;;;;5.22;2.10;;;;;;;;;;4856498;29;20502;-71
2022/07/07 03:17:08;;;;;;;7.43;2.08;;;;;;;;;;4856385;29;20057;-71
2022/07/07 03:19:39;;;;;;;6.53;2.30;;;;;;;;;;4852232;29;20046;-71
2022/07/07 03:22:09;;;;;;;4.63;1.70;;;;;;;;;;4820731;29;20055;-72
2022/07/07 03:24:39;;;;;;;8.40;2.55;;;;;;;;;;4821488;29;20054;-71
2022/07/07 03:27:10;;;;;;;6.40;1.73;;;;;;;;;;4822377;29;20053;-72
2022/07/07 03:29:40;;;;;;;6.05;2.03;;;;;;;;;;4792802;29;20062;-72
2022/07/07 03:32:11;;;;;;;5.45;2.05;;;;;;;;;;4822468;29;20066;-72
2022/07/07 03:34:42;;;;;;;5.50;1.80;;;;;;;;;;4837323;29;20648;-71
2022/07/07 03:37:12;;;;;;;5.35;1.73;;;;;;;;;;4792724;29;20062;-72
2022/07/07 03:39:43;;;;;;;5.78;2.00;;;;;;;;;;4822540;29;20058;-72
2022/07/07 03:42:14;;;;;;;6.35;1.58;;;;;;;;;;4831638;29;20069;-72
2022/07/07 03:44:44;;;;;;;6.47;2.13;;;;;;;;;;4840718;29;20395;-73
2022/07/07 03:47:15;;;;;;;5.25;1.80;;;;;;;;;;4840927;29;20061;-72
2022/07/07 03:49:50;;;;;;;4.95;1.95;;;;;;;;;;4840798;29;20057;-72
2022/07/07 03:52:21;;;;;;;5.55;1.70;;;;;;;;;;4840913;29;20073;-73
2022/07/07 03:54:51;;;;;;;3.83;1.42;;;;;;;;;;4840708;29;20069;-72
2022/07/07 03:57:22;;;;;;;5.45;1.85;;;;;;;;;;4850390;29;20061;-72
2022/07/07 03:59:52;;;;;;;7.32;2.10;;;;;;;;;;4840300;29;20053;-73
2022/07/07 04:02:23;;;;;;;7.30;2.00;;;;;;;;;;4840605;29;20068;-72
2022/07/07 04:04:54;;;;;;;3.17;1.45;;;;;;;;;;4811974;29;20046;-73
2022/07/07 04:07:24;;;;;;;5.15;1.63;;;;;;;;;;4773607;29;20509;-73
2022/07/07 04:09:55;;;;;;;5.90;1.70;;;;;;;;;;4774080;29;20440;-71
2022/07/07 04:12:26;;;;;;;4.22;1.90;;;;;;;;;;4804287;29;20508;-72
2022/07/07 04:14:57;;;;;;;4.57;1.80;;;;;;;;;;4803795;29;20428;-72
2022/07/07 04:17:27;;;;;;;4.30;1.52;;;;;;;;;;4804130;29;20066;-70
2022/07/07 04:19:58;;;;;;;2.78;1.42;;;;;;;;;;4803471;29;20051;-72
2022/07/07 04:22:29;;;;;;;4.45;1.50;;;;;;;;;;4821258;29;20526;-72
2022/07/07 04:24:59;;;;;;;6.13;1.73;;;;;;;;;;4806291;29;20062;-73
2022/07/07 04:27:30;;;;;;;4.43;1.77;;;;;;;;;;4821663;29;20066;-72
2022/07/07 04:30:00;;;;;;;5.78;1.75;;;;;;;;;;4807029;29;20082;-72
2022/07/07 04:32:31;;;;;;;3.78;1.77;;;;;;;;;;4821502;29;20424;-72
2022/07/07 04:35:01;;;;;;;4.57;1.63;;;;;;;;;;4821025;29;20077;-72
2022/07/07 04:37:31;;;;;;;5.45;1.50;;;;;;;;;;4812612;29;20542;-72
2022/07/07 04:40:03;;;;;;;4.25;1.77;;;;;;;;;;4803318;29;20055;-73
2022/07/07 04:42:34;;;;;;;3.75;1.48;;;;;;;;;;4803372;29;20539;-72
2022/07/07 04:45:05;;;;;;;3.33;1.60;;;;;;;;;;4812444;29;20055;-72
2022/07/07 04:47:42;;;;;;;6.45;1.80;;;;;;;;;;4821164;29;20130;-72
2022/07/07 04:50:14;;;;;;;5.88;1.65;;;;;;;;;;4818604;29;20054;-73
2022/07/07 04:52:45;;;;;;;6.88;1.50;;;;;;;;;;4803251;29;20062;-72
2022/07/07 04:55:14;;;;;;;7.72;1.70;;;;;;;;;;4803227;29;20526;-73
2022/07/07 04:57:45;;;;;;;7.75;1.52;;;;;;;;;;4803259;29;20531;-72
2022/07/07 05:00:16;;;;;;;5.65;1.50;;;;;;;;;;4778223;29;20072;-72
2022/07/07 05:02:47;;;;;;;3.03;1.52;;;;;;;;;;4839613;29;20074;-71
2022/07/07 05:05:17;;;;;;;2.15;1.20;;;;;;;;;;4808958;29;20065;-72
2022/07/07 05:07:47;;;;;;;4.00;1.50;;;;;;;;;;4809071;29;20565;-72
2022/07/07 05:10:17;;;;;;;2.30;1.02;;;;;;;;;;4850012;29;20065;-72
2022/07/07 05:12:50;;;;;;;6.05;1.60;;;;;;;;;;4857582;29;20136;-72
2022/07/07 05:15:21;;;;;;;4.68;1.40;;;;;;;;;;4857398;29;20449;-72
2022/07/07 05:17:51;;;;;;;3.63;1.13;;;;;;;;;;4857488;29;20073;-72
2022/07/07 05:20:27;;;;;;;3.83;1.27;;;;;;;;;;4857440;29;20069;-71
2022/07/07 05:22:57;;;;;;;4.45;1.48;;;;;;;;;;4857587;29;20057;-72
2022/07/07 05:25:27;;;;;;;3.40;1.45;;;;;;;;;;4857332;29;20062;-72
2022/07/07 05:27:58;;;;;;;3.72;1.40;;;;;;;;;;4867535;29;20466;-72
2022/07/07 05:30:28;;;;;;;6.75;1.30;;;;;;;;;;4876197;29;20060;-73
2022/07/07 05:32:58;;;;;;;3.28;1.33;;;;;;;;;;4876078;29;20068;-72
2022/07/07 05:35:29;;;;;;;6.20;1.40;;;;;;;;;;4860592;29;20065;-72
2022/07/07 05:37:59;;;;;;;6.45;1.63;;;;;;;;;;4875918;29;20064;-72
2022/07/07 05:40:30;;;;;;;3.47;1.17;;;;;;;;;;4815111;29;20470;-72
2022/07/07 05:42:59;;;;;;;4.90;1.67;;;;;;;;;;4894265;29;20059;-73
2022/07/07 05:45:30;;;;;;;3.67;1.42;;;;;;;;;;4893232;29;20060;-72
2022/07/07 05:48:01;;;;;;;3.60;1.15;;;;;;;;;;4833217;29;20061;-72
2022/07/07 05:50:37;;;;;;;2.88;1.08;;;;;;;;;;4883338;29;20421;-72
2022/07/07 05:53:07;;;;;;;8.50;1.50;;;;;;;;;;4875845;29;20072;-72
2022/07/07 05:55:37;;;;;;;10.85;1.50;;;;;;;;;;4845158;29;20064;-72
2022/07/07 05:58:07;;;;;;;3.97;1.42;;;;;;;;;;4890794;29;20057;-72
2022/07/07 06:00:37;;;;;;;5.07;1.50;;;;;;;;;;4875416;29;20068;-73
2022/07/07 06:03:08;;;;;;;5.07;1.33;;;;;;;;;;4875706;29;20206;-72
2022/07/07 06:05:40;;;;;;;9.73;1.77;;;;;;;;;;4860452;29;20136;-72
2022/07/07 06:08:10;;;;;;;3.90;1.50;;;;;;;;;;4875219;29;20084;-72
2022/07/07 06:10:40;;;;;;;4.53;1.30;;;;;;;;;;4875493;29;20061;-71
2022/07/07 06:13:10;;;;;;;10.05;1.40;;;;;;;;;;4875595;29;20512;-72
2022/07/07 06:15:41;;;;;;;4.55;1.50;;;;;;;;;;4875256;29;20057;-71
2022/07/07 06:18:11;;;;;;;5.10;1.48;;;;;;;;;;4875326;29;20053;-72
2022/07/07 06:20:42;;;;;;;6.68;1.08;;;;;;;;;;4865258;29;20522;-71
2022/07/07 06:23:12;;;;;;;3.53;1.33;;;;;;;;;;4811054;29;20197;-72
2022/07/07 06:25:45;;;;;;;6.32;1.77;;;;;;;;;;4826014;29;20053;-71
2022/07/07 06:28:16;;;;;;;2.72;1.30;;;;;;;;;;4866164;29;20068;-71
2022/07/07 06:30:49;;;;;;;7.05;1.73;;;;;;;;;;4856117;29;20054;-72
2022/07/07 06:33:19;;;;;;;6.03;1.30;;;;;;;;;;4841664;29;20076;-72
2022/07/07 06:35:49;;;;;;;6.40;1.63;;;;;;;;;;4856507;29;20434;-71
2022/07/07 06:38:20;;;;;;;4.90;1.65;;;;;;;;;;4856543;29;20458;-72
2022/07/07 06:40:50;;;;;;;4.00;1.30;;;;;;;;;;4856582;29;20053;-72
2022/07/07 06:43:20;;;;;;;4.30;1.50;;;;;;;;;;4841698;29;20069;-72
2022/07/07 06:45:50;;;;;;;4.28;1.33;;;;;;;;;;4856557;29;20060;-72
2022/07/07 06:48:21;;;;;;;5.82;1.95;;;;;;;;;;4856282;29;20062;-72
2022/07/07 06:50:51;;;;;;;5.10;1.63;;;;;;;;;;4856158;29;20053;-72
2022/07/07 06:53:21;;;;;;;7.75;1.60;;;;;;;;;;4826256;29;20062;-72
2022/07/07 06:55:52;;;;;;;5.45;1.67;;;;;;;;;;4841288;29;20065;-72
2022/07/07 06:58:22;;;;;;;6.18;1.50;;;;;;;;;;4860197;29;20053;-73
2022/07/07 07:00:52;;;;;;;5.10;1.60;;;;;;;;;;4860072;29;20536;-71
2022/07/07 07:03:23;;;;;;;5.95;1.40;;;;;;;;;;4804981;29;20057;-72
2022/07/07 07:05:54;;;;;;;2.20;1.10;;;;;;;;;;4841582;29;20462;-71
2022/07/07 07:08:26;;;;;;;4.60;1.75;;;;;;;;;;4859576;29;20681;-71
2022/07/07 07:10:57;;;;;;;9.25;1.80;;;;;;;;;;4832087;29;20045;-72
2022/07/07 07:13:26;;;;;;;4.47;1.60;;;;;;;;;;4878404;29;20120;-72
2022/07/07 07:15:58;;;;;;;7.40;1.30;;;;;;;;;;4832274;29;20056;-72
2022/07/07 07:18:28;;;;;;;5.85;1.67;;;;;;;;;;4878347;29;20053;-72
2022/07/07 07:20:58;;;;;;;7.38;1.88;;;;;;;;;;4878444;29;20049;-71
2022/07/07 07:23:28;;;;;;;3.70;1.50;;;;;;;;;;4862865;29;20052;-71
2022/07/07 07:25:59;;;;;;;5.75;1.48;;;;;;;;;;4877932;29;20057;-72
2022/07/07 07:28:29;;;;;;;3.10;1.45;;;;;;;;;;4877981;29;20094;-71
2022/07/07 07:31:00;;;;;;;6.57;1.80;;;;;;;;;;4878361;29;20056;-71
2022/07/07 07:33:31;;;;;;;6.00;1.65;;;;;;;;;;4878396;29;20060;-72
2022/07/07 07:36:02;;;;;;;6.75;1.60;;;;;;;;;;4877646;29;20069;-71
2022/07/07 07:38:32;;;;;;;7.82;1.67;;;;;;;;;;4847738;29;20064;-71
2022/07/07 07:41:04;;;;;;;9.05;1.55;;;;;;;;;;4874286;29;20058;-71
2022/07/07 07:43:35;;;;;;;6.30;1.58;;;;;;;;;;4859127;29;20061;-71
2022/07/07 07:46:10;;;;;;;3.10;1.55;;;;;;;;;;4813256;29;20048;-71
2022/07/07 07:48:40;;;;;;;5.65;2.10;;;;;;;;;;4858909;29;20513;-71
2022/07/07 07:51:10;;;;;;;6.68;1.80;;;;;;;;;;4843953;29;20065;-71
2022/07/07 07:53:40;;;;;;;7.72;1.77;;;;;;;;;;4874431;29;20049;-71
2022/07/07 07:56:11;;;;;;;5.45;1.85;;;;;;;;;;4874279;29;20054;-71
2022/07/07 07:58:42;;;;;;;5.25;1.55;;;;;;;;;;4861751;29;20053;-71
2022/07/07 08:01:12;;;;;;;3.58;1.48;;;;;;;;;;4858562;29;20086;-71
2022/07/07 08:03:42;;;;;;;5.82;1.80;;;;;;;;;;4848892;29;20078;-71
2022/07/07 08:06:12;;;;;;;4.05;1.60;;;;;;;;;;4825102;29;20042;-71
2022/07/07 08:08:43;;;;;;;4.85;1.90;;;;;;;;;;4839343;29;20066;-71
2022/07/07 08:11:13;;;;;;;5.43;1.73;;;;;;;;;;4808107;29;20057;-71
2022/07/07 08:13:43;;;;;;;4.80;1.95;;;;;;;;;;4776891;29;20074;-71
2022/07/07 08:16:14;;;;;;;5.45;2.08;;;;;;;;;;4792003;29;20077;-71
2022/07/07 08:18:50;;;;;;;5.45;1.80;;;;;;;;;;4791793;29;20518;-71
2022/07/07 08:21:21;;;;;;;4.18;1.88;;;;;;;;;;4822101;29;20050;-71
2022/07/07 08:23:51;;;;;;;4.60;1.90;;;;;;;;;;4821770;29;20063;-71
2022/07/07 08:26:21;;;;;;;4.95;1.92;;;;;;;;;;4806216;29;20546;-71
2022/07/07 08:28:51;;;;;;;4.93;1.80;;;;;;;;;;4821849;29;20527;-71
2022/07/07 08:31:22;;;;;;;7.70;1.90;;;;;;;;;;4821705;29;20066;-71
2022/07/07 08:33:52;;;;;;;5.60;1.90;;;;;;;;;;4791805;29;20050;-72
2022/07/07 08:36:22;;;;;;;3.83;1.80;;;;;;;;;;4782164;29;20066;-71
2022/07/07 08:38:53;;;;;;;4.72;2.20;;;;;;;;;;4807080;29;20050;-71
2022/07/07 08:41:24;;;;;;;4.35;1.52;;;;;;;;;;4840122;29;20439;-72
2022/07/07 08:43:56;;;;;;;4.53;1.65;;;;;;;;;;4856801;29;20060;-71
2022/07/07 08:46:26;;;;;;;6.00;1.77;;;;;;;;;;4876480;29;20057;-72
2022/07/07 08:48:56;;;;;;;3.85;1.60;;;;;;;;;;4845616;29;20447;-71
2022/07/07 08:51:27;;;;;;;5.68;1.80;;;;;;;;;;4876854;29;20069;-72
2022/07/07 08:54:02;;;;;;;5.32;1.88;;;;;;;;;;4876629;29;20060;-71
2022/07/07 08:56:33;;;;;;;6.38;1.90;;;;;;;;;;4876644;29;20053;-71
2022/07/07 08:59:03;;;;;;;5.40;1.80;;;;;;;;;;4876704;29;20053;-71
2022/07/07 09:01:35;;;;;;;4.22;1.90;;;;;;;;;;4876641;29;20615;-71
2022/07/07 09:04:06;;;;;;;8.20;1.80;;;;;;;;;;4876453;29;20136;-71
2022/07/07 09:06:36;;;;;;;3.97;1.80;;;;;;;;;;4876394;29;20048;-71
2022/07/07 09:09:06;;;;;;;4.70;1.95;;;;;;;;;;4876096;29;20057;-70
2022/07/07 09:11:37;;;;;;;4.05;1.50;;;;;;;;;;4876369;29;20060;-72
2022/07/07 09:14:12;;;;;;;4.40;1.90;;;;;;;;;;4876263;29;20057;-71
2022/07/07 09:16:43;;;;;;;4.00;1.70;;;;;;;;;;4876073;29;20065;-71
2022/07/07 09:19:21;;;;;;;7.78;2.35;;;;;;;;;;4876119;29;20084;-71
2022/07/07 09:21:52;;;;;;;7.93;1.65;;;;;;;;;;4876496;29;20060;-73
2022/07/07 09:24:22;;;;;;;5.93;1.90;;;;;;;;;;4858080;29;20069;-72
2022/07/07 09:26:54;;;;;;;4.85;2.28;;;;;;;;;;4860002;29;20049;-71
2022/07/07 09:29:27;;;;;;;4.13;1.73;;;;;;;;;;4859967;29;20053;-71
2022/07/07 09:32:08;;;;;;;4.72;1.92;;;;;;;;;;4872652;29;20632;-72
2022/07/07 09:34:38;;;;;;;5.20;1.67;;;;;;;;;;4872459;29;20065;-71
2022/07/07 09:39:58;;;;;;;7.13;1.80;;;;;;;;;;4859552;29;20053;-71
2022/07/07 09:42:38;;;;;;;4.35;1.75;;;;;;;;;;4842277;29;20061;-72
2022/07/07 09:45:11;;;;;;;6.38;2.10;;;;;;;;;;4856955;29;20057;-73
2022/07/07 09:47:42;;;;;;;5.45;1.50;;;;;;;;;;4857132;29;20550;-72
2022/07/07 09:50:14;;;;;;;8.32;1.70;;;;;;;;;;4857305;29;20061;-72
2022/07/07 09:52:47;;;;;;;3.33;1.77;;;;;;;;;;4857206;29;20049;-72
2022/07/07 09:55:17;;;;;;;4.72;2.00;;;;;;;;;;4842193;29;20049;-72
2022/07/07 09:57:48;;;;;;;11.35;1.70;;;;;;;;;;4856930;29;20061;-72
2022/07/07 10:00:18;;;;;;;4.18;1.77;;;;;;;;;;4841617;29;20073;-72
2022/07/07 10:02:51;;;;;;;5.50;1.70;;;;;;;;;;4857149;29;20073;-72
2022/07/07 10:05:24;;;;;;;4.78;2.10;;;;;;;;;;4842025;29;20061;-72
2022/07/07 10:07:57;;;;;;;8.32;1.88;;;;;;;;;;4838011;29;20065;-72
2022/07/07 10:10:28;;;;;;;5.32;1.73;;;;;;;;;;4820275;29;20066;-73
2022/07/07 10:13:01;;;;;;;5.30;1.80;;;;;;;;;;4789626;29;20202;-72
2022/07/07 10:15:32;;;;;;;6.03;1.88;;;;;;;;;;4791177;29;20074;-72
2022/07/07 10:18:05;;;;;;;5.88;1.80;;;;;;;;;;4820071;29;20058;-72
2022/07/07 10:20:36;;;;;;;6.25;2.05;;;;;;;;;;4791488;29;20455;-73
2022/07/07 10:23:06;;;;;;;5.00;1.92;;;;;;;;;;4816803;29;20065;-72
2022/07/07 10:25:36;;;;;;;7.63;2.08;;;;;;;;;;4838108;29;20423;-72
2022/07/07 10:28:07;;;;;;;6.75;1.70;;;;;;;;;;4838272;29;20605;-71
2022/07/07 10:30:38;;;;;;;14.85;2.38;;;;;;;;;;4838378;29;20072;-72
2022/07/07 10:33:08;;;;;;;11.02;2.25;;;;;;;;;;4838127;29;20406;-72
2022/07/07 10:35:45;;;;;;;6.05;2.30;;;;;;;;;;4837992;29;20066;-71
2022/07/07 10:38:18;;;;;;;7.00;2.00;;;;;;;;;;4837988;29;20423;-71
2022/07/07 10:40:54;;;;;;;5.43;2.33;;;;;;;;;;4852977;29;20423;-72
2022/07/07 10:43:31;;;;;;;4.70;2.20;;;;;;;;;;4792957;29;20058;-72
2022/07/07 10:46:02;;;;;;;8.90;2.53;;;;;;;;;;4838072;29;20057;-72
2022/07/07 10:48:50;;;;;;;6.85;1.92;;;;;;;;;;4850509;29;20057;-72
2022/07/07 10:51:22;;;;;;;7.97;2.97;;;;;;;;;;4853369;29;20061;-72
2022/07/07 10:54:09;;;;;;;8.43;2.72;;;;;;;;;;4826307;29;20062;-73
2022/07/07 10:57:02;;;;;;;13.80;3.20;;;;;;;;;;4874820;29;20064;-71
2022/07/07 11:00:06;;;;;;;6.50;2.85;;;;;;;;;;4856466;29;20085;-73
2022/07/07 11:02:42;;;;;;;12.63;4.93;;;;;;;;;;4801518;29;20083;-72
2022/07/07 11:05:15;;;;;;;19.67;5.65;;;;;;;;;;4768250;30;20059;-73
2022/07/07 11:07:58;;;;;;;7.95;2.83;;;;;;;;;;4750140;30;20063;-74
2022/07/07 11:10:40;;;;;;;6.75;2.80;;;;;;;;;;4765533;30;20066;-73
2022/07/07 11:13:32;;;;;;;9.50;3.08;;;;;;;;;;4765801;30;20063;-73
2022/07/07 11:16:23;;;;;;;8.45;2.33;;;;;;;;;;4765728;30;20066;-73
2022/07/07 11:18:59;;;;;;;7.45;2.55;;;;;;;;;;4765487;30;20698;-72
2022/07/07 11:21:40;;;;;;;8.48;3.75;;;;;;;;;;4765626;30;20066;-72
2022/07/07 11:24:24;;;;;;;8.75;3.08;;;;;;;;;;4765374;30;20068;-72
2022/07/07 11:26:57;;;;;;;8.20;3.03;;;;;;;;;;4747517;30;20059;-72
2022/07/07 11:29:27;;;;;;;;;;;;;;;;;;4719382;30;20071;-71
2022/07/07 11:32:15;;;;;;;7.93;2.92;;;;;;;;;;4704148;30;19933;-71
2022/07/07 11:34:51;;;;;;;5.18;2.42;;;;;;;;;;4747867;30;20068;-72
2022/07/07 11:37:27;;;;;;;12.75;2.95;;;;;;;;;;4705063;30;20080;-72
2022/07/07 11:39:58;;;;;;;9.18;2.50;;;;;;;;;;4741485;30;20068;-72
2022/07/07 11:42:36;;;;;;;8.10;3.88;;;;;;;;;;4759838;29;20413;-72
2022/07/07 11:45:19;;;;;;;6.72;2.85;;;;;;;;;;4799498;29;20077;-72
2022/07/07 11:47:50;;;;;;;6.13;2.72;;;;;;;;;;4792181;29;20062;-72
2022/07/07 11:50:21;;;;;;;10.48;3.10;;;;;;;;;;4804340;29;20532;-72
2022/07/07 11:52:54;;;;;;;10.30;3.67;;;;;;;;;;4804427;29;20099;-72
2022/07/07 11:55:25;;;;;;;10.25;3.42;;;;;;;;;;4785880;29;20062;-72
2022/07/07 11:57:59;;;;;;;9.57;3.30;;;;;;;;;;4757167;30;20063;-72
2022/07/07 12:00:32;;;;;;;8.98;3.08;;;;;;;;;;4786236;29;20070;-72
2022/07/07 12:03:05;;;;;;;6.93;3.22;;;;;;;;;;4770891;29;20508;-72
2022/07/07 12:05:45;;;;;;;13.80;4.13;;;;;;;;;;4820797;29;20467;-71
2022/07/07 12:08:15;;;;;;;13.55;4.30;;;;;;;;;;4776974;29;20081;-72
2022/07/07 12:10:53;;;;;;;10.65;3.40;;;;;;;;;;4822022;29;20061;-72
2022/07/07 12:13:25;;;;;;;9.20;3.65;;;;;;;;;;4777062;29;20065;-72
2022/07/07 12:15:58;;;;;;;7.70;3.25;;;;;;;;;;4821925;29;20066;-71
2022/07/07 12:18:33;;;;;;;10.48;2.92;;;;;;;;;;4822142;29;20404;-71
2022/07/07 12:21:15;;;;;;;6.38;2.47;;;;;;;;;;4803570;29;20062;-71
2022/07/07 12:23:46;;;;;;;12.30;2.53;;;;;;;;;;4803923;29;20428;-73
2022/07/07 12:26:20;;;;;;;3.95;1.70;;;;;;;;;;4774360;29;20075;-72
2022/07/07 12:28:57;;;;;;;6.95;1.48;;;;;;;;;;4788692;29;20165;-72
2022/07/07 12:31:27;;;;;;;6.65;1.85;;;;;;;;;;4803697;29;20062;-72
2022/07/07 12:34:13;;;;;;;4.80;2.00;;;;;;;;;;4801589;29;20055;-73
2022/07/07 12:36:45;;;;;;;5.78;1.50;;;;;;;;;;4781888;29;20052;-72
2022/07/07 12:39:21;;;;;;;9.02;1.73;;;;;;;;;;4767513;30;20472;-72
2022/07/07 12:41:55;;;;;;;8.10;2.55;;;;;;;;;;4767861;30;20070;-73
2022/07/07 12:44:35;;;;;;;8.68;3.17;;;;;;;;;;4767683;30;20062;-73
2022/07/07 12:47:29;;;;;;;11.63;4.47;;;;;;;;;;4767599;30;20059;-72
2022/07/07 12:49:59;;;;;;;14.82;5.40;;;;;;;;;;4723706;30;20060;-72
2022/07/07 12:52:29;;;;;;;12.32;3.97;;;;;;;;;;4749589;30;20063;-73
2022/07/07 12:55:11;;;;;;;10.13;5.63;;;;;;;;;;4749052;30;20071;-73
2022/07/07 12:57:41;;;;;;;10.88;4.80;;;;;;;;;;4753937;29;20075;-73
2022/07/07 13:00:27;;;;;;;14.70;5.88;;;;;;;;;;4802965;29;20058;-73
2022/07/07 13:02:57;;;;;;;24.40;9.73;;;;;;;;;;4784823;29;20067;-73
2022/07/07 13:05:27;;;;;;;19.27;6.93;;;;;;;;;;4755439;29;20428;-73
2022/07/07 13:07:58;;;;;;;22.08;7.88;;;;;;;;;;4740431;30;20071;-73
2022/07/07 13:10:28;;;;;;;8.30;4.05;;;;;;;;;;4755328;29;20067;-73
2022/07/07 13:12:59;;;;;;;9.77;4.20;;;;;;;;;;4784962;29;20044;-72
2022/07/07 13:15:28;;;;;;;16.20;5.20;;;;;;;;;;4819529;29;20066;-73
2022/07/07 13:17:59;;;;;;;11.73;5.00;;;;;;;;;;4821118;29;20077;-72
2022/07/07 13:20:29;;;;;;;16.02;8.48;;;;;;;;;;4790775;29;20073;-73
2022/07/07 13:22:59;;;;;;;11.73;7.50;;;;;;;;;;4821340;29;20065;-73
2022/07/07 13:25:30;;;;;;;17.35;8.30;;;;;;;;;;4820869;29;20054;-74
2022/07/07 13:28:01;;;;;;;12.27;7.85;;;;;;;;;;4804807;29;20050;-74
2022/07/07 13:30:31;;;;;;;16.52;8.95;;;;;;;;;;4820925;29;20070;-74
2022/07/07 13:33:01;;;;;;;16.35;6.38;;;;;;;;;;4820799;29;20066;-74
2022/07/07 13:35:31;;;;;;;18.33;7.15;;;;;;;;;;4805462;29;20063;-73
2022/07/07 13:38:01;;;;;;;10.80;5.65;;;;;;;;;;4820897;29;20439;-73
2022/07/07 13:40:32;;;;;;;11.60;5.80;;;;;;;;;;4829439;29;20061;-72
2022/07/07 13:43:04;;;;;;;;;;;;;;;;;;4810201;29;20085;-73
2022/07/07 13:45:34;;;;;;;12.07;6.00;;;;;;;;;;4838602;29;19947;-74
2022/07/07 13:48:05;;;;;;;12.48;5.20;;;;;;;;;;4838915;29;20054;-73
2022/07/07 13:50:36;;;;;;;11.38;5.20;;;;;;;;;;4838720;29;20061;-73
2022/07/07 13:53:06;;;;;;;13.82;6.68;;;;;;;;;;4793535;29;20058;-73
2022/07/07 13:55:37;;;;;;;13.45;6.00;;;;;;;;;;4793311;29;20088;-74
2022/07/07 13:58:07;;;;;;;25.17;7.20;;;;;;;;;;4838756;29;20057;-73
2022/07/07 14:00:38;;;;;;;11.93;5.65;;;;;;;;;;4838799;29;20069;-73
2022/07/07 14:03:09;;;;;;;9.00;4.45;;;;;;;;;;4838732;29;20050;-73
2022/07/07 14:05:39;;;;;;;4.70;2.25;;;;;;;;;;4848617;29;20068;-71
2022/07/07 14:08:10;;;;;;;4.05;1.38;;;;;;;;;;4869793;29;20052;-73
2022/07/07 14:10:41;;;;;;;2.35;1.08;;;;;;;;;;4815193;29;20060;-72
2022/07/07 14:13:12;;;;;;;2.78;0.85;;;;;;;;;;4860939;29;20068;-72
2022/07/07 14:15:45;;;;;;;2.35;0.70;;;;;;;;;;4877675;29;20053;-71
2022/07/07 14:18:16;;;;;;;5.25;1.27;;;;;;;;;;4860349;29;20061;-69
2022/07/07 14:20:46;;;;;;;2.17;0.70;;;;;;;;;;4860070;29;20060;-69
2022/07/07 14:23:17;;;;;;;3.75;0.93;;;;;;;;;;4877653;29;20054;-71
2022/07/07 14:25:47;;;;;;;2.90;0.65;;;;;;;;;;4877581;29;20056;-72
2022/07/07 14:28:18;;;;;;;3.10;0.50;;;;;;;;;;4877531;29;20052;-72
2022/07/07 14:30:51;;;;;;;1.77;0.43;;;;;;;;;;4874952;29;20056;-70
2022/07/07 14:33:22;;;;;;;3.38;0.80;;;;;;;;;;4844321;29;20057;-70
2022/07/07 14:35:53;;;;;;;2.20;0.55;;;;;;;;;;4875213;29;20068;-70
2022/07/07 14:38:23;;;;;;;3.58;0.65;;;;;;;;;;4830301;29;20480;-72
2022/07/07 14:40:54;;;;;;;1.70;0.70;;;;;;;;;;4875234;29;20513;-69
2022/07/07 14:43:24;;;;;;;8.43;0.63;;;;;;;;;;4875174;29;20064;-72
2022/07/07 14:46:01;;;;;;;4.35;0.85;;;;;;;;;;4875205;29;20057;-73
2022/07/07 14:48:32;;;;;;;2.92;0.70;;;;;;;;;;4859701;29;20068;-72
2022/07/07 14:51:03;;;;;;;2.60;0.82;;;;;;;;;;4874822;29;20064;-71
2022/07/07 14:53:33;;;;;;;1.63;0.52;;;;;;;;;;4875057;29;20403;-73
2022/07/07 14:56:03;;;;;;;3.38;0.70;;;;;;;;;;4856314;29;20057;-73
2022/07/07 14:58:34;;;;;;;2.97;0.70;;;;;;;;;;4819412;29;20054;-72
2022/07/07 15:01:05;;;;;;;6.38;0.93;;;;;;;;;;4819825;29;20058;-69
2022/07/07 15:03:35;;;;;;;2.88;0.70;;;;;;;;;;4819704;29;20065;-69
2022/07/07 15:06:06;;;;;;;3.50;0.70;;;;;;;;;;4774259;29;20435;-70
2022/07/07 15:08:37;;;;;;;7.80;0.60;;;;;;;;;;4799797;29;20536;-72
2022/07/07 15:11:07;;;;;;;2.88;0.70;;;;;;;;;;4783538;29;20059;-72